Terminal Aerodrome Forecast
Issued by NWS Blacksburg, VA

Home | Current Version | Previous Version | Text Only | Print | Product List | Glossary On
Versions: 1 2 3 4 5 6 7 8 9 10 11 12 13 14 15
000
FTUS41 KRNK 271429 AAA
TAFROA
TAF AMD
KROA 271429Z 2714/2812 VRB03KT P6SM OVC005
     FM271700 23006KT P6SM BKN020
      TEMPO 2717/2718 4SM -SHRA OVC050
     FM271800 23007KT P6SM VCSH BKN050
     FM280000 19004KT P6SM BKN060
     FM280900 VRB03KT P6SM BKN010
     FM281100 21004KT P6SM BKN060=

USA.gov is the U.S. government's official web portal to all federal, state and local government web resources and services.